DWD Radarbild

   
[Quelle: ADDS]
METAR
EDLP 192120Z 17002KT 9999 BKN013 03/02 Q1019 =
EDLP 191700Z 1918/2018 VRB03KT 9000 BKN010 TEMPO 1918/2016 4500 -RA BR BKN008 PROB40 TEMPO 1923/2012 2500 BR BKN003 BECMG 2016/2018 BKN020
TAF
EDLP 191700Z 1918/2018 VRB03KT 9000 BKN010 TEMPO 1918/2016 4500 -RA BR BKN008 PROB40 TEMPO 1923/2012 2500 BR BKN003 BECMG 2016/2018 BKN020 =
   
   

Meine WettercamWettercam aus Bielefeld Senne - Blickrichtung Süd-Ost

   
Moon phase
Phase:
Abnehmend

Mondphase:
50%

Alter:
22 Tage

Entfernung:
226,794 Km

Zeit:
22:41:00

Datum:
19-11-2019

   
<<  Nov 2019  >>
 Mo  Di  Mi  Do  Fr  Sa  So 
      1  2  3
  4  5  6  7  8  910
11121314151617
18192021222324
252627282930